Time;durP1;ratioP1;P1;durP2;ratioP2;P2;SDS_P1;SDS_P2;PMS_P1;PMS_P2;Temp;Humidity;BMP_temperature;BMP_pressure;BME280_temperature;BME280_humidity;BME280_pressure;Samples;Min_cycle;Max_cycle;Signal;HPM_P1;HPM_P2
2023/11/15 00:01:48;;;;;;;4.82;1.80;;;12.10;99.90;;;;;;5072517;28;20674;-76
2023/11/15 00:04:14;;;;;;;4.37;1.93;;;12.10;99.90;;;;;;5073757;28;20221;-76
2023/11/15 00:06:40;;;;;;;8.17;2.80;;;12.10;99.90;;;;;;5073565;28;20204;-76
2023/11/15 00:09:06;;;;;;;5.23;2.60;;;12.20;99.90;;;;;;5055897;28;20700;-77
2023/11/15 00:11:33;;;;;;;4.50;2.50;;;12.20;99.90;;;;;;5073705;28;20956;-77
2023/11/15 00:13:59;;;;;;;4.43;2.43;;;12.20;99.90;;;;;;5055634;28;20647;-77
2023/11/15 00:16:25;;;;;;;6.80;2.40;;;12.20;99.90;;;;;;5038860;28;21024;-76
2023/11/15 00:18:51;;;;;;;6.53;3.47;;;12.30;99.90;;;;;;5073765;28;20574;-76
2023/11/15 00:21:18;;;;;;;5.30;2.53;;;12.20;99.90;;;;;;5056590;28;20795;-76
2023/11/15 00:23:43;;;;;;;5.03;2.15;;;12.30;99.90;;;;;;5060982;28;20176;-76
2023/11/15 00:26:09;;;;;;;6.43;3.00;;;12.30;99.90;;;;;;5055194;28;20302;-77
2023/11/15 00:28:39;;;;;;;4.20;2.30;;;12.30;99.90;;;;;;5056028;28;20183;-77
2023/11/15 00:31:06;;;;;;;9.60;3.23;;;12.30;99.90;;;;;;5038558;28;20597;-76
2023/11/15 00:33:32;;;;;;;4.10;2.20;;;12.30;99.90;;;;;;5073511;28;20581;-76
2023/11/15 00:35:58;;;;;;;7.67;2.40;;;12.30;99.90;;;;;;5073039;28;21191;-76
2023/11/15 00:38:27;;;;;;;5.33;2.43;;;12.40;99.90;;;;;;5055641;28;20252;-77
2023/11/15 00:40:53;;;;;;;11.60;4.13;;;12.40;99.90;;;;;;5054931;28;20192;-76
2023/11/15 00:43:19;;;;;;;4.33;1.63;;;12.40;99.90;;;;;;5055351;28;20586;-77
2023/11/15 00:45:45;;;;;;;6.23;2.53;;;12.40;99.90;;;;;;5021931;28;20659;-77
2023/11/15 00:48:12;;;;;;;7.83;2.20;;;12.40;99.90;;;;;;5038719;28;20621;-77
2023/11/15 00:50:38;;;;;;;10.50;2.60;;;12.40;99.90;;;;;;5065967;28;20935;-77
2023/11/15 00:53:04;;;;;;;6.60;2.30;;;12.50;99.90;;;;;;5054803;28;20914;-77
2023/11/15 00:55:30;;;;;;;11.47;2.13;;;12.50;99.90;;;;;;5075090;28;21194;-77
2023/11/15 00:57:58;;;;;;;6.20;1.90;;;12.50;99.90;;;;;;5057079;28;20598;-77
2023/11/15 01:00:23;;;;;;;9.37;2.20;;;12.50;99.90;;;;;;5047444;28;20590;-76
2023/11/15 01:02:57;;;;;;;5.30;2.17;;;12.50;99.90;;;;;;5054983;28;20687;-76
2023/11/15 01:05:28;;;;;;;9.10;2.50;;;12.50;99.90;;;;;;5055066;28;20752;-77
2023/11/15 01:07:54;;;;;;;6.63;2.37;;;12.50;99.90;;;;;;5068334;28;20591;-76
2023/11/15 01:10:20;;;;;;;4.23;1.43;;;12.50;99.90;;;;;;5073298;28;20636;-77
2023/11/15 01:12:46;;;;;;;5.03;1.60;;;12.50;99.90;;;;;;5037049;28;20581;-76
2023/11/15 01:15:13;;;;;;;5.70;1.80;;;12.50;99.90;;;;;;5054700;28;20211;-76
2023/11/15 01:17:38;;;;;;;9.17;2.40;;;12.50;99.90;;;;;;5054762;28;20586;-76
2023/11/15 01:20:06;;;;;;;3.43;1.80;;;12.50;99.90;;;;;;5038032;28;20594;-76
2023/11/15 01:22:32;;;;;;;4.77;1.60;;;12.60;99.90;;;;;;5046812;28;20291;-76
2023/11/15 01:24:58;;;;;;;7.57;2.40;;;12.60;99.90;;;;;;5072712;28;20622;-76
2023/11/15 01:27:25;;;;;;;4.00;2.17;;;12.60;99.90;;;;;;5038144;28;20601;-76
2023/11/15 01:29:51;;;;;;;6.90;2.10;;;12.50;99.90;;;;;;5042207;28;20630;-76
2023/11/15 01:32:17;;;;;;;12.53;2.67;;;12.60;99.90;;;;;;5037483;28;20678;-76
2023/11/15 01:34:43;;;;;;;9.83;2.00;;;12.60;99.90;;;;;;5054641;28;20735;-76
2023/11/15 01:37:09;;;;;;;8.13;2.20;;;12.60;99.90;;;;;;5038268;28;20587;-76
2023/11/15 01:39:34;;;;;;;8.10;2.23;;;12.60;99.90;;;;;;5037903;28;20249;-76
2023/11/15 01:42:00;;;;;;;5.83;1.90;;;12.60;99.90;;;;;;5037424;28;20658;-76
2023/11/15 01:44:27;;;;;;;8.43;2.00;;;12.60;99.90;;;;;;5072477;28;20187;-76
2023/11/15 01:46:53;;;;;;;8.27;1.80;;;12.60;99.90;;;;;;5072214;28;20619;-76
2023/11/15 01:49:20;;;;;;;3.80;1.77;;;12.60;99.90;;;;;;5037971;28;20647;-77
2023/11/15 01:51:47;;;;;;;7.57;2.07;;;12.70;99.90;;;;;;5053284;28;20180;-75
2023/11/15 01:54:14;;;;;;;8.40;2.77;;;12.70;99.90;;;;;;5064090;28;20606;-76
2023/11/15 01:56:40;;;;;;;6.37;2.23;;;12.70;99.90;;;;;;5055544;28;20934;-76
2023/11/15 01:59:08;;;;;;;9.13;2.30;;;12.70;99.90;;;;;;5054705;28;20590;-76
2023/11/15 02:01:35;;;;;;;10.47;1.70;;;12.70;99.90;;;;;;5037832;28;20696;-76
2023/11/15 02:04:01;;;;;;;9.63;2.73;;;12.70;99.90;;;;;;5054401;28;20590;-77
2023/11/15 02:06:31;;;;;;;8.93;2.20;;;12.80;99.90;;;;;;5037790;28;21212;-77
2023/11/15 02:08:59;;;;;;;7.07;2.77;;;12.80;99.90;;;;;;5053762;28;20604;-77
2023/11/15 02:11:28;;;;;;;4.70;1.93;;;12.80;99.90;;;;;;5072985;28;21104;-77
2023/11/15 02:13:58;;;;;;;6.10;1.77;;;12.80;99.90;;;;;;5056219;28;21100;-76
2023/11/15 02:16:25;;;;;;;6.13;2.27;;;12.80;99.90;;;;;;5037198;28;20623;-76
2023/11/15 02:18:50;;;;;;;7.60;2.17;;;12.80;99.90;;;;;;5037235;28;20644;-77
2023/11/15 02:21:17;;;;;;;8.10;2.00;;;12.80;99.90;;;;;;5036791;28;20630;-77
2023/11/15 02:23:44;;;;;;;9.17;1.83;;;12.80;99.90;;;;;;5071012;28;20534;-77
2023/11/15 02:26:10;;;;;;;10.30;2.60;;;12.90;99.90;;;;;;5053165;28;20603;-77
2023/11/15 02:28:36;;;;;;;12.60;2.30;;;12.90;99.90;;;;;;5053414;28;20579;-77
2023/11/15 02:31:02;;;;;;;6.83;2.77;;;12.90;99.90;;;;;;5036323;28;21061;-77
2023/11/15 02:33:28;;;;;;;7.50;2.53;;;12.80;99.90;;;;;;5053393;28;20670;-76
2023/11/15 02:35:53;;;;;;;10.30;2.60;;;12.90;99.90;;;;;;5036523;28;20709;-77
2023/11/15 02:38:19;;;;;;;8.77;2.33;;;12.90;99.90;;;;;;5036644;28;20179;-77
2023/11/15 02:40:45;;;;;;;5.97;2.20;;;12.90;99.90;;;;;;5053314;28;20192;-77
2023/11/15 02:43:13;;;;;;;6.07;1.63;;;12.90;99.90;;;;;;5052775;28;20615;-77
2023/11/15 02:45:38;;;;;;;3.80;1.53;;;12.90;99.90;;;;;;5069526;28;20606;-77
2023/11/15 02:48:04;;;;;;;9.67;2.03;;;12.90;99.90;;;;;;5052940;28;21261;-77
2023/11/15 02:50:31;;;;;;;9.33;2.40;;;13.00;99.90;;;;;;5065304;28;20226;-77
2023/11/15 02:52:57;;;;;;;7.53;3.07;;;13.00;99.90;;;;;;5069371;28;20591;-77
2023/11/15 02:55:23;;;;;;;7.50;2.30;;;13.00;99.90;;;;;;5052644;28;20719;-77
2023/11/15 02:57:49;;;;;;;9.97;3.17;;;13.00;99.90;;;;;;5036182;28;21219;-77
2023/11/15 03:00:16;;;;;;;9.87;2.60;;;13.00;99.90;;;;;;5036165;28;20211;-77
2023/11/15 03:02:42;;;;;;;6.20;1.80;;;13.00;99.90;;;;;;5069133;28;20290;-77
2023/11/15 03:05:09;;;;;;;7.20;2.27;;;13.00;99.90;;;;;;5035949;28;20700;-77
2023/11/15 03:07:35;;;;;;;7.40;2.40;;;13.10;99.90;;;;;;5036000;28;20579;-77
2023/11/15 03:10:01;;;;;;;9.80;2.27;;;13.10;99.90;;;;;;5052788;28;20578;-77
2023/11/15 03:12:27;;;;;;;5.90;2.60;;;13.10;99.90;;;;;;5035637;28;20607;-77
2023/11/15 03:14:52;;;;;;;7.73;2.03;;;13.10;99.90;;;;;;5019385;28;20204;-77
2023/11/15 03:17:19;;;;;;;6.23;2.07;;;13.10;99.90;;;;;;5035880;28;20230;-77
2023/11/15 03:19:45;;;;;;;7.20;2.17;;;13.10;99.90;;;;;;5070494;28;20691;-77
2023/11/15 03:22:14;;;;;;;7.73;2.23;;;13.10;99.90;;;;;;5051910;28;20649;-77
2023/11/15 03:24:42;;;;;;;7.93;2.07;;;13.10;99.90;;;;;;5070567;28;20636;-77
2023/11/15 03:27:08;;;;;;;5.33;1.50;;;13.10;99.90;;;;;;5055797;28;20624;-77
2023/11/15 03:29:34;;;;;;;3.90;2.40;;;13.20;99.90;;;;;;5070753;28;20582;-77
2023/11/15 03:31:59;;;;;;;8.03;2.03;;;13.20;99.90;;;;;;5070422;28;20586;-76
2023/11/15 03:34:25;;;;;;;6.63;2.10;;;13.20;99.90;;;;;;5019430;28;20238;-76
2023/11/15 03:36:51;;;;;;;7.53;1.70;;;13.20;99.90;;;;;;5055417;28;20214;-76
2023/11/15 03:39:19;;;;;;;6.90;1.97;;;13.20;99.90;;;;;;5039855;28;20180;-76
2023/11/15 03:41:45;;;;;;;4.33;1.70;;;13.20;99.90;;;;;;5039580;28;20199;-77
2023/11/15 03:44:12;;;;;;;7.10;2.00;;;13.30;99.90;;;;;;5056461;28;20681;-77
2023/11/15 03:46:38;;;;;;;4.60;1.90;;;13.30;99.90;;;;;;5056342;28;20625;-76
2023/11/15 03:49:04;;;;;;;5.00;1.83;;;13.30;99.90;;;;;;5056627;28;20632;-76
2023/11/15 03:51:29;;;;;;;9.77;2.33;;;13.30;99.90;;;;;;5056584;28;20670;-76
2023/11/15 03:53:55;;;;;;;7.80;1.90;;;13.30;99.90;;;;;;5056479;28;20598;-76
2023/11/15 03:56:21;;;;;;;7.80;1.83;;;13.30;99.90;;;;;;5074130;28;20188;-76
2023/11/15 03:58:46;;;;;;;5.27;1.70;;;13.30;99.90;;;;;;5039563;28;20192;-76
2023/11/15 04:01:12;;;;;;;13.60;2.67;;;13.30;99.90;;;;;;5055869;28;20204;-76
2023/11/15 04:03:38;;;;;;;6.80;1.67;;;13.30;99.90;;;;;;5044223;28;20249;-76
2023/11/15 04:06:05;;;;;;;7.40;1.43;;;13.30;99.90;;;;;;5056023;28;20198;-76
2023/11/15 04:08:31;;;;;;;6.53;1.57;;;13.20;99.90;;;;;;5072885;28;20559;-76
2023/11/15 04:11:00;;;;;;;4.03;1.40;;;13.30;99.90;;;;;;5055837;28;20670;-76
2023/11/15 04:13:26;;;;;;;5.33;1.73;;;13.20;99.90;;;;;;5039165;28;20606;-76
2023/11/15 04:15:54;;;;;;;5.27;2.17;;;13.20;99.90;;;;;;5073471;28;20704;-76
2023/11/15 04:18:20;;;;;;;7.80;2.00;;;13.30;99.90;;;;;;5073598;28;20183;-76
2023/11/15 04:20:46;;;;;;;6.40;2.43;;;13.30;99.90;;;;;;5055870;28;20628;-76
2023/11/15 04:23:12;;;;;;;7.47;1.63;;;13.20;99.90;;;;;;5055395;28;20590;-76
2023/11/15 04:25:39;;;;;;;8.97;1.67;;;13.20;99.90;;;;;;5055278;28;20684;-76
2023/11/15 04:28:06;;;;;;;9.93;1.97;;;13.30;99.90;;;;;;5051811;28;20604;-76
2023/11/15 04:30:32;;;;;;;7.00;1.90;;;13.30;99.90;;;;;;5073527;28;20986;-76
2023/11/15 04:32:59;;;;;;;6.87;1.53;;;13.30;99.90;;;;;;5073060;28;20582;-76
2023/11/15 04:35:25;;;;;;;5.73;1.50;;;13.30;99.90;;;;;;5072922;28;20695;-76
2023/11/15 04:37:50;;;;;;;10.97;2.70;;;13.30;99.90;;;;;;5073545;28;20570;-76
2023/11/15 04:40:18;;;;;;;5.60;2.10;;;13.30;99.90;;;;;;5059346;28;20605;-76
2023/11/15 04:42:43;;;;;;;8.20;1.90;;;13.30;99.90;;;;;;5041182;28;20200;-76
2023/11/15 04:45:09;;;;;;;10.13;2.13;;;13.30;99.90;;;;;;5072848;28;20682;-77
2023/11/15 04:47:35;;;;;;;8.07;1.70;;;13.30;99.90;;;;;;5054901;28;20538;-76
2023/11/15 04:50:01;;;;;;;7.23;1.37;;;13.30;99.90;;;;;;5055397;28;20575;-76
2023/11/15 04:52:27;;;;;;;7.07;2.43;;;13.30;99.90;;;;;;5072855;28;20255;-76
2023/11/15 04:54:54;;;;;;;7.73;2.57;;;13.30;99.90;;;;;;5073174;28;20575;-76
2023/11/15 04:57:23;;;;;;;7.67;1.40;;;13.30;99.90;;;;;;5054778;28;20574;-76
2023/11/15 04:59:51;;;;;;;7.77;1.77;;;13.30;99.90;;;;;;5075244;28;20586;-76
2023/11/15 05:02:17;;;;;;;6.03;1.40;;;13.20;99.90;;;;;;5073071;28;20756;-76
2023/11/15 05:04:43;;;;;;;6.57;1.63;;;13.20;99.90;;;;;;5055186;28;20582;-77
2023/11/15 05:07:11;;;;;;;6.13;1.90;;;13.20;99.90;;;;;;5058797;28;20579;-77
2023/11/15 05:09:37;;;;;;;4.33;1.40;;;13.20;99.90;;;;;;5038507;28;20598;-77
2023/11/15 05:12:03;;;;;;;5.23;1.57;;;13.20;99.90;;;;;;5054911;28;20609;-76
2023/11/15 05:14:29;;;;;;;7.90;2.00;;;13.20;99.90;;;;;;5054679;28;20759;-77
2023/11/15 05:16:55;;;;;;;8.07;1.50;;;13.20;99.90;;;;;;5073177;28;20651;-77
2023/11/15 05:19:20;;;;;;;10.20;1.60;;;13.20;99.90;;;;;;5075209;28;20955;-78
2023/11/15 05:21:46;;;;;;;7.37;1.40;;;13.20;99.90;;;;;;5054508;28;20294;-77
2023/11/15 05:24:12;;;;;;;12.93;1.77;;;13.20;99.90;;;;;;5054482;28;20229;-77
2023/11/15 05:26:37;;;;;;;6.90;1.60;;;13.20;99.90;;;;;;5046286;28;20745;-76
2023/11/15 05:29:03;;;;;;;4.50;1.20;;;13.20;99.90;;;;;;5068481;28;20166;-76
2023/11/15 05:31:29;;;;;;;11.67;1.90;;;13.20;99.90;;;;;;5066401;28;20193;-76
2023/11/15 05:33:55;;;;;;;9.43;1.70;;;13.20;99.90;;;;;;5072821;28;20180;-78
2023/11/15 05:36:22;;;;;;;5.87;1.80;;;13.20;99.90;;;;;;5054148;28;20203;-77
2023/11/15 05:38:48;;;;;;;7.83;1.60;;;13.10;99.90;;;;;;5054640;28;20267;-77
2023/11/15 05:41:14;;;;;;;5.67;1.50;;;13.10;99.90;;;;;;5054914;28;20634;-77
2023/11/15 05:43:41;;;;;;;13.87;1.90;;;13.10;99.90;;;;;;5072384;28;21079;-77
2023/11/15 05:46:06;;;;;;;7.73;1.93;;;13.00;99.90;;;;;;5053983;28;20192;-77
2023/11/15 05:48:33;;;;;;;11.60;2.20;;;13.00;99.90;;;;;;5046712;28;20635;-77
2023/11/15 05:51:00;;;;;;;7.90;1.90;;;13.00;99.90;;;;;;5071439;28;20179;-77
2023/11/15 05:53:26;;;;;;;8.53;1.83;;;13.00;99.90;;;;;;5055155;28;20602;-77
2023/11/15 05:55:52;;;;;;;7.83;2.10;;;13.00;99.90;;;;;;5056907;28;20607;-77
2023/11/15 05:58:17;;;;;;;12.07;1.70;;;13.00;99.90;;;;;;5053250;28;20624;-77
2023/11/15 06:00:43;;;;;;;11.00;2.10;;;13.00;99.90;;;;;;5054082;28;20650;-77
2023/11/15 06:03:09;;;;;;;5.43;1.83;;;13.00;99.90;;;;;;5053878;28;20263;-77
2023/11/15 06:05:34;;;;;;;8.60;2.00;;;13.00;99.90;;;;;;5072108;28;20227;-77
2023/11/15 06:08:00;;;;;;;8.93;1.80;;;13.00;99.90;;;;;;5053794;28;20264;-77
2023/11/15 06:10:26;;;;;;;9.40;2.53;;;13.00;99.90;;;;;;5071403;28;20512;-77
2023/11/15 06:12:55;;;;;;;7.03;1.70;;;13.10;99.90;;;;;;5053784;28;20233;-77
2023/11/15 06:15:21;;;;;;;5.00;2.00;;;13.10;99.90;;;;;;5070956;28;20994;-77
2023/11/15 06:17:46;;;;;;;4.17;1.43;;;13.10;99.90;;;;;;5071413;28;21140;-77
2023/11/15 06:20:13;;;;;;;7.73;1.80;;;13.10;99.90;;;;;;5053504;28;20677;-77
2023/11/15 06:22:39;;;;;;;8.27;2.60;;;13.10;99.90;;;;;;5053016;28;20226;-77
2023/11/15 06:25:08;;;;;;;7.53;3.17;;;13.10;99.90;;;;;;5053239;28;20713;-77
2023/11/15 06:27:38;;;;;;;7.87;1.90;;;13.10;99.90;;;;;;5053154;28;20586;-77
2023/11/15 06:30:08;;;;;;;10.00;2.63;;;13.20;99.90;;;;;;5036914;28;20586;-78
2023/11/15 06:32:34;;;;;;;6.67;1.83;;;13.20;99.90;;;;;;5074870;28;20590;-78
2023/11/15 06:35:00;;;;;;;11.27;2.33;;;13.20;99.90;;;;;;5053459;28;20618;-78
2023/11/15 06:37:26;;;;;;;7.20;2.47;;;13.20;99.90;;;;;;5036319;28;20607;-78
2023/11/15 06:39:52;;;;;;;10.40;2.43;;;13.20;99.90;;;;;;5053442;28;20598;-78
2023/11/15 06:42:21;;;;;;;13.67;2.30;;;13.20;99.90;;;;;;5050733;28;20214;-78
2023/11/15 06:44:47;;;;;;;7.33;3.27;;;13.30;99.90;;;;;;5053219;28;20590;-78
2023/11/15 06:47:14;;;;;;;7.40;2.10;;;13.30;99.90;;;;;;5052853;28;20582;-78
2023/11/15 06:49:41;;;;;;;7.90;3.10;;;13.30;99.90;;;;;;5053169;28;20586;-78
2023/11/15 06:52:07;;;;;;;4.27;1.50;;;13.30;99.90;;;;;;5053413;28;20589;-77
2023/11/15 06:54:33;;;;;;;11.87;2.37;;;13.30;99.90;;;;;;5072831;28;21148;-77
2023/11/15 06:56:58;;;;;;;6.33;1.70;;;13.40;99.90;;;;;;5052738;28;20624;-78
2023/11/15 06:59:25;;;;;;;6.87;2.80;;;13.40;99.90;;;;;;5053212;28;20673;-77
2023/11/15 07:01:52;;;;;;;8.73;2.37;;;13.40;99.90;;;;;;5052960;28;20211;-77
2023/11/15 07:04:19;;;;;;;3.63;1.43;;;13.40;99.90;;;;;;5036344;28;20636;-77
2023/11/15 07:06:47;;;;;;;9.53;1.93;;;13.40;99.90;;;;;;5071352;28;20618;-76
2023/11/15 07:09:20;;;;;;;11.03;2.00;;;13.40;99.90;;;;;;5073425;28;20578;-77
2023/11/15 07:11:46;;;;;;;6.27;1.90;;;13.40;99.90;;;;;;5064766;28;20584;-76
2023/11/15 07:14:14;;;;;;;8.37;2.67;;;13.40;99.90;;;;;;5053742;28;20597;-76
2023/11/15 07:16:48;;;;;;;7.53;1.60;;;13.50;99.90;;;;;;5053229;28;20667;-77
2023/11/15 07:19:14;;;;;;;8.70;1.70;;;13.50;99.90;;;;;;5052995;28;20922;-76
2023/11/15 07:21:41;;;;;;;7.80;2.20;;;13.50;99.90;;;;;;5060989;28;20653;-77
2023/11/15 07:24:09;;;;;;;12.17;2.10;;;13.50;99.90;;;;;;5069322;28;20586;-78
2023/11/15 07:26:35;;;;;;;9.67;1.73;;;13.50;99.90;;;;;;5052230;28;20740;-78
2023/11/15 07:29:07;;;;;;;9.20;4.90;;;13.50;99.90;;;;;;5052662;28;20574;-78
2023/11/15 07:31:34;;;;;;;10.80;5.50;;;13.60;99.90;;;;;;5053893;28;20937;-77
2023/11/15 07:34:00;;;;;;;5.80;2.17;;;13.60;99.90;;;;;;5052524;28;20685;-78
2023/11/15 07:36:29;;;;;;;15.00;2.53;;;13.60;99.90;;;;;;5070121;28;20718;-77
2023/11/15 07:38:59;;;;;;;3.70;2.00;;;13.60;99.90;;;;;;5035928;28;20618;-77
2023/11/15 07:41:25;;;;;;;6.97;1.97;;;13.70;99.90;;;;;;5069972;28;20622;-76
2023/11/15 07:43:54;;;;;;;5.17;2.00;;;13.70;99.90;;;;;;5070577;28;20586;-76
2023/11/15 07:46:23;;;;;;;5.57;2.00;;;13.70;99.90;;;;;;5058567;28;20622;-77
2023/11/15 07:48:50;;;;;;;8.90;1.97;;;13.70;99.90;;;;;;5053546;28;20587;-77
2023/11/15 07:51:18;;;;;;;4.20;1.60;;;13.70;99.90;;;;;;5052143;28;20591;-78
2023/11/15 07:53:49;;;;;;;5.70;2.00;;;13.80;99.90;;;;;;5051523;28;20591;-78
2023/11/15 07:56:18;;;;;;;5.73;1.93;;;13.80;99.90;;;;;;5070301;28;20618;-78
2023/11/15 07:58:45;;;;;;;9.10;1.87;;;13.80;99.90;;;;;;5052323;28;20597;-78
2023/11/15 08:01:10;;;;;;;9.67;2.17;;;13.90;99.90;;;;;;5052342;28;20622;-78
2023/11/15 08:03:36;;;;;;;5.03;1.50;;;13.90;99.90;;;;;;5070204;28;20644;-78
2023/11/15 08:06:02;;;;;;;6.47;1.73;;;13.90;99.90;;;;;;5051590;28;20196;-77
2023/11/15 08:08:28;;;;;;;6.67;2.40;;;14.00;99.90;;;;;;5070459;28;20172;-77
2023/11/15 08:10:54;;;;;;;5.47;1.47;;;14.00;99.90;;;;;;5069652;28;20587;-77
2023/11/15 08:13:19;;;;;;;8.53;2.13;;;14.10;99.90;;;;;;5070513;28;20250;-78
2023/11/15 08:15:49;;;;;;;8.80;1.70;;;14.10;99.90;;;;;;5051074;28;20196;-76
2023/11/15 08:18:15;;;;;;;6.50;1.70;;;14.20;99.90;;;;;;5051324;28;20586;-77
2023/11/15 08:20:45;;;;;;;8.60;2.00;;;14.30;99.90;;;;;;5068112;28;20586;-77
2023/11/15 08:23:12;;;;;;;3.93;1.30;;;14.30;99.90;;;;;;5073974;28;20639;-77
2023/11/15 08:25:41;;;;;;;9.17;1.83;;;14.30;99.90;;;;;;5054678;28;20618;-77
2023/11/15 08:28:07;;;;;;;7.00;1.87;;;14.40;99.90;;;;;;5054892;28;20582;-79
2023/11/15 08:30:33;;;;;;;6.23;1.37;;;14.40;99.90;;;;;;5072889;28;20587;-79
2023/11/15 08:32:59;;;;;;;6.27;1.50;;;14.50;99.90;;;;;;5054680;28;20687;-79
2023/11/15 08:35:26;;;;;;;8.50;1.80;;;14.50;99.90;;;;;;5054570;28;20633;-79
2023/11/15 08:37:52;;;;;;;6.63;1.70;;;14.50;99.90;;;;;;5072449;28;20977;-78
2023/11/15 08:40:22;;;;;;;8.73;1.97;;;14.50;99.90;;;;;;5054928;28;21160;-79
2023/11/15 08:42:51;;;;;;;5.70;1.70;;;14.50;99.90;;;;;;5053733;28;20637;-79
2023/11/15 08:45:20;;;;;;;8.20;1.40;;;14.50;99.90;;;;;;5054619;28;20617;-79
2023/11/15 08:47:47;;;;;;;7.13;1.57;;;14.40;99.90;;;;;;5055250;28;20586;-80
2023/11/15 08:50:14;;;;;;;7.53;2.63;;;14.40;99.90;;;;;;5073208;28;20905;-79
2023/11/15 08:52:40;;;;;;;7.43;1.23;;;14.40;99.90;;;;;;5054415;28;20578;-80
2023/11/15 08:55:08;;;;;;;5.93;1.67;;;14.40;99.90;;;;;;5072393;28;20630;-80
2023/11/15 08:57:35;;;;;;;6.23;2.07;;;14.50;99.90;;;;;;5054509;28;20578;-80
2023/11/15 09:00:03;;;;;;;6.23;1.37;;;14.50;99.90;;;;;;5057693;28;20605;-79
2023/11/15 09:02:29;;;;;;;8.03;1.40;;;14.60;99.90;;;;;;5054323;28;20638;-79
2023/11/15 09:04:55;;;;;;;10.20;1.83;;;14.70;99.90;;;;;;5054233;28;20619;-78
2023/11/15 09:07:21;;;;;;;13.13;2.87;;;14.80;99.90;;;;;;5072510;28;20605;-79
2023/11/15 09:09:46;;;;;;;8.77;1.80;;;14.90;99.90;;;;;;5054484;28;20184;-78
2023/11/15 09:12:13;;;;;;;8.00;1.80;;;15.00;99.90;;;;;;5073746;28;20583;-79
2023/11/15 09:14:39;;;;;;;7.57;1.75;;;15.10;99.90;;;;;;5032465;28;1103151;-78
2023/11/15 09:17:12;;;;;;;7.23;1.73;;;15.30;99.90;;;;;;5038803;28;20196;-78
2023/11/15 09:19:38;;;;;;;7.97;1.80;;;15.50;99.90;;;;;;5073175;28;20595;-79
2023/11/15 09:22:05;;;;;;;6.00;1.60;;;15.80;99.90;;;;;;5054568;28;20630;-79
2023/11/15 09:24:33;;;;;;;10.03;2.77;;;15.90;99.90;;;;;;5041033;28;20622;-79
2023/11/15 09:27:00;;;;;;;6.03;1.80;;;16.10;99.90;;;;;;5074771;28;20708;-80
2023/11/15 09:29:30;;;;;;;6.07;1.57;;;16.20;99.90;;;;;;5056509;28;20930;-80
2023/11/15 09:31:55;;;;;;;9.70;2.20;;;16.30;99.90;;;;;;5073209;28;20582;-80
2023/11/15 09:34:21;;;;;;;6.60;1.97;;;16.40;99.90;;;;;;5071804;28;20979;-79
2023/11/15 09:36:47;;;;;;;7.90;1.97;;;16.30;99.90;;;;;;5055290;28;20701;-79
2023/11/15 09:39:16;;;;;;;9.13;2.00;;;16.40;99.90;;;;;;5054690;28;20233;-79
2023/11/15 09:41:51;;;;;;;6.43;1.53;;;16.40;99.90;;;;;;5054062;28;20999;-79
2023/11/15 09:44:20;;;;;;;10.00;1.80;;;16.50;99.90;;;;;;5072284;28;20700;-78
2023/11/15 09:46:46;;;;;;;9.63;2.47;;;16.60;99.90;;;;;;5071964;28;20698;-79
2023/11/15 09:49:15;;;;;;;6.07;1.70;;;16.70;99.90;;;;;;5072091;28;20608;-79
2023/11/15 09:51:42;;;;;;;8.83;1.97;;;16.80;99.90;;;;;;5071810;28;20617;-79
2023/11/15 09:54:10;;;;;;;8.77;3.00;;;16.80;99.90;;;;;;5072014;28;20589;-78
2023/11/15 09:56:36;;;;;;;5.03;1.70;;;16.90;99.90;;;;;;5053836;28;20625;-79
2023/11/15 09:59:02;;;;;;;6.60;1.50;;;16.90;99.90;;;;;;5038102;28;20583;-80
2023/11/15 10:01:28;;;;;;;6.70;1.30;;;17.00;99.90;;;;;;5037504;28;20630;-80
2023/11/15 10:03:54;;;;;;;6.93;1.30;;;17.10;99.90;;;;;;5072791;28;20567;-79
2023/11/15 10:06:20;;;;;;;4.67;1.40;;;17.10;99.90;;;;;;5055263;28;20189;-80
2023/11/15 10:08:53;;;;;;;5.07;1.50;;;17.20;99.90;;;;;;5072404;28;20582;-78
2023/11/15 10:11:20;;;;;;;6.33;1.27;;;17.20;99.90;;;;;;5071461;28;20581;-78
2023/11/15 10:14:06;;;;;;;4.00;1.13;;;17.20;99.90;;;;;;5072727;28;21042;-78
2023/11/15 10:16:34;;;;;;;8.23;1.50;;;17.20;99.90;;;;;;5053722;28;20622;-78
2023/11/15 10:19:00;;;;;;;5.80;1.50;;;17.30;99.90;;;;;;5071866;28;21146;-79
2023/11/15 10:21:26;;;;;;;4.87;1.27;;;17.20;99.90;;;;;;5057223;28;20976;-79
2023/11/15 10:24:10;;;;;;;5.90;1.40;;;17.20;99.90;;;;;;5071525;28;20575;-78
2023/11/15 10:26:39;;;;;;;5.47;1.57;;;17.20;99.90;;;;;;5065073;28;20614;-79
2023/11/15 10:29:12;;;;;;;5.83;1.67;;;17.10;99.90;;;;;;5037233;28;20674;-79
2023/11/15 10:31:55;;;;;;;4.93;1.30;;;17.10;99.90;;;;;;5036626;28;20586;-79
2023/11/15 10:34:27;;;;;;;4.77;1.57;;;17.00;99.90;;;;;;5072119;28;20593;-78
2023/11/15 10:37:10;;;;;;;5.67;1.47;;;16.90;99.90;;;;;;5052379;28;20622;-78
2023/11/15 10:39:43;;;;;;;6.87;1.90;;;16.70;99.90;;;;;;5068432;28;20955;-77
2023/11/15 10:42:13;;;;;;;3.77;1.43;;;16.60;99.90;;;;;;5045946;28;20638;-77
2023/11/15 10:44:41;;;;;;;5.77;1.43;;;16.50;99.90;;;;;;5069236;28;20598;-77
2023/11/15 10:47:08;;;;;;;4.47;1.30;;;16.30;99.90;;;;;;5071113;28;20772;-77
2023/11/15 10:49:41;;;;;;;6.43;1.87;;;16.20;99.90;;;;;;5070553;28;20583;-76
2023/11/15 10:52:08;;;;;;;8.10;2.20;;;16.20;99.90;;;;;;5074214;28;20628;-76
2023/11/15 10:54:35;;;;;;;7.33;2.00;;;16.10;99.90;;;;;;5053297;28;20936;-77
2023/11/15 10:57:04;;;;;;;7.20;2.87;;;16.10;99.90;;;;;;5070343;28;20613;-77
2023/11/15 10:59:36;;;;;;;3.90;1.23;;;16.10;99.90;;;;;;5027449;28;20600;-77
2023/11/15 11:02:05;;;;;;;7.90;2.77;;;16.10;99.90;;;;;;5052306;28;21195;-77
2023/11/15 11:04:33;;;;;;;7.57;2.43;;;16.20;99.90;;;;;;5070776;28;20586;-76
2023/11/15 11:07:21;;;;;;;7.07;2.30;;;16.30;99.90;;;;;;5052491;28;21205;-76
2023/11/15 11:09:59;;;;;;;5.17;1.73;;;16.30;99.90;;;;;;5070000;28;20647;-76
2023/11/15 11:12:25;;;;;;;4.50;1.60;;;16.50;99.90;;;;;;5052208;28;20600;-76
2023/11/15 11:15:16;;;;;;;5.60;1.67;;;16.60;99.90;;;;;;5069803;28;20606;-76
2023/11/15 11:17:45;;;;;;;6.47;1.70;;;16.60;99.90;;;;;;5070315;28;20587;-77
2023/11/15 11:20:28;;;;;;;8.60;2.37;;;16.60;99.90;;;;;;5052614;28;20612;-77
2023/11/15 11:23:19;;;;;;;5.67;1.33;;;16.60;99.90;;;;;;5051706;28;20660;-77
2023/11/15 11:25:48;;;;;;;4.70;1.67;;;16.70;99.90;;;;;;5051466;28;20734;-76
2023/11/15 11:28:15;;;;;;;3.47;1.60;;;16.70;99.90;;;;;;5046596;28;20604;-77
2023/11/15 11:30:42;;;;;;;8.90;3.17;;;16.70;99.90;;;;;;5038575;28;20616;-77
2023/11/15 11:33:10;;;;;;;8.03;2.70;;;16.70;99.90;;;;;;5069943;28;20583;-76
2023/11/15 11:35:40;;;;;;;9.03;4.37;;;16.60;99.90;;;;;;5052038;28;20602;-76
2023/11/15 11:38:10;;;;;;;6.60;2.50;;;16.60;99.90;;;;;;5052314;28;20713;-76
2023/11/15 11:40:39;;;;;;;5.33;2.57;;;16.60;99.90;;;;;;5069972;28;20590;-76
2023/11/15 11:43:21;;;;;;;4.37;2.30;;;16.50;99.90;;;;;;5035398;28;20966;-76
2023/11/15 11:45:50;;;;;;;5.17;1.80;;;16.50;99.90;;;;;;5052028;28;20602;-77
2023/11/15 11:48:21;;;;;;;7.17;2.33;;;16.40;99.90;;;;;;5052124;28;20636;-76
2023/11/15 11:50:58;;;;;;;7.13;2.10;;;16.40;99.90;;;;;;5069963;28;20937;-76
2023/11/15 11:53:24;;;;;;;5.27;1.47;;;16.40;99.90;;;;;;5052159;28;20586;-76
2023/11/15 11:55:54;;;;;;;4.70;1.63;;;16.40;99.90;;;;;;5051801;28;21164;-77
2023/11/15 11:58:21;;;;;;;7.00;1.30;;;16.40;99.90;;;;;;5055607;28;20579;-77
2023/11/15 12:00:48;;;;;;;6.33;1.53;;;16.40;99.90;;;;;;5064262;28;20590;-77
2023/11/15 12:03:15;;;;;;;3.67;1.77;;;16.40;99.90;;;;;;5073817;28;20976;-76
2023/11/15 12:05:41;;;;;;;8.73;2.70;;;16.20;99.90;;;;;;5059579;28;20999;-77
2023/11/15 12:08:07;;;;;;;6.57;2.00;;;16.20;99.90;;;;;;5056079;28;20652;-76
2023/11/15 12:10:34;;;;;;;2.83;1.60;;;16.10;99.90;;;;;;5056043;28;20188;-76
2023/11/15 12:13:06;;;;;;;6.70;1.87;;;16.10;99.90;;;;;;5073223;28;20176;-77
2023/11/15 12:15:35;;;;;;;4.27;1.60;;;16.10;99.90;;;;;;5073053;28;21367;-77
2023/11/15 12:18:02;;;;;;;5.67;1.50;;;16.10;99.90;;;;;;5073010;28;20586;-77
2023/11/15 12:20:38;;;;;;;5.73;2.17;;;16.20;99.90;;;;;;5072524;28;20608;-76
2023/11/15 12:23:12;;;;;;;8.50;2.47;;;16.20;99.90;;;;;;5073247;28;20640;-76
2023/11/15 12:25:54;;;;;;;4.63;1.53;;;16.30;99.90;;;;;;5073036;28;20609;-76
2023/11/15 12:28:30;;;;;;;3.80;1.47;;;16.20;99.90;;;;;;5055516;28;20585;-76
2023/11/15 12:30:57;;;;;;;5.17;1.70;;;16.30;99.90;;;;;;5055219;28;20582;-76
2023/11/15 12:33:24;;;;;;;5.30;2.13;;;16.40;99.90;;;;;;5073337;28;20593;-76
2023/11/15 12:35:53;;;;;;;8.10;1.73;;;16.40;99.90;;;;;;5071778;28;20664;-76
2023/11/15 12:38:19;;;;;;;6.37;1.90;;;16.40;99.90;;;;;;5055815;28;20597;-76
2023/11/15 12:40:45;;;;;;;5.77;1.93;;;16.40;99.90;;;;;;5056224;28;20655;-77
2023/11/15 12:43:22;;;;;;;12.37;2.03;;;16.40;99.90;;;;;;5056823;28;20638;-77
2023/11/15 12:45:59;;;;;;;8.37;1.90;;;16.40;99.90;;;;;;5054794;28;20659;-76
2023/11/15 12:48:25;;;;;;;6.27;2.03;;;16.40;99.90;;;;;;5055387;28;20586;-76